sensor_id;sensor_type;location;lat;lon;timestamp;P1;durP1;ratioP1;P2;durP2;ratioP2
47429;SDS011;33181;49.246;7.372;2023-04-01T00:00:58;4.07;;;1.80;;
47429;SDS011;33181;49.246;7.372;2023-04-01T00:03:25;6.00;;;2.13;;
47429;SDS011;33181;49.246;7.372;2023-04-01T00:05:52;8.87;;;2.30;;
47429;SDS011;33181;49.246;7.372;2023-04-01T00:08:19;3.90;;;1.73;;
47429;SDS011;33181;49.246;7.372;2023-04-01T00:10:45;6.23;;;2.40;;
47429;SDS011;33181;49.246;7.372;2023-04-01T00:13:11;6.60;;;2.20;;
47429;SDS011;33181;49.246;7.372;2023-04-01T00:15:37;7.70;;;2.20;;
47429;SDS011;33181;49.246;7.372;2023-04-01T00:18:03;9.43;;;2.47;;
47429;SDS011;33181;49.246;7.372;2023-04-01T00:20:30;5.10;;;2.10;;
47429;SDS011;33181;49.246;7.372;2023-04-01T00:22:55;7.97;;;2.10;;
47429;SDS011;33181;49.246;7.372;2023-04-01T00:25:22;6.67;;;2.00;;
47429;SDS011;33181;49.246;7.372;2023-04-01T00:27:48;5.53;;;2.10;;
47429;SDS011;33181;49.246;7.372;2023-04-01T00:30:15;8.20;;;2.40;;
47429;SDS011;33181;49.246;7.372;2023-04-01T00:32:41;5.17;;;2.50;;
47429;SDS011;33181;49.246;7.372;2023-04-01T00:35:07;6.13;;;2.27;;
47429;SDS011;33181;49.246;7.372;2023-04-01T00:37:36;5.67;;;2.00;;
47429;SDS011;33181;49.246;7.372;2023-04-01T00:40:04;3.90;;;2.20;;
47429;SDS011;33181;49.246;7.372;2023-04-01T00:42:32;7.50;;;2.80;;
47429;SDS011;33181;49.246;7.372;2023-04-01T00:44:57;10.60;;;2.50;;
47429;SDS011;33181;49.246;7.372;2023-04-01T00:47:43;8.43;;;2.50;;
47429;SDS011;33181;49.246;7.372;2023-04-01T00:50:09;7.57;;;2.00;;
47429;SDS011;33181;49.246;7.372;2023-04-01T00:52:35;9.10;;;2.30;;
47429;SDS011;33181;49.246;7.372;2023-04-01T00:55:01;8.13;;;2.53;;
47429;SDS011;33181;49.246;7.372;2023-04-01T00:57:35;8.80;;;2.47;;
47429;SDS011;33181;49.246;7.372;2023-04-01T01:00:04;5.87;;;2.07;;
47429;SDS011;33181;49.246;7.372;2023-04-01T01:02:34;6.07;;;2.23;;
47429;SDS011;33181;49.246;7.372;2023-04-01T01:05:00;7.60;;;2.20;;
47429;SDS011;33181;49.246;7.372;2023-04-01T01:10:34;9.00;;;2.50;;
47429;SDS011;33181;49.246;7.372;2023-04-01T01:22:04;5.83;;;2.27;;
47429;SDS011;33181;49.246;7.372;2023-04-01T01:30:51;4.07;;;2.20;;
47429;SDS011;33181;49.246;7.372;2023-04-01T01:33:35;9.00;;;2.47;;
47429;SDS011;33181;49.246;7.372;2023-04-01T01:36:07;10.87;;;2.60;;
47429;SDS011;33181;49.246;7.372;2023-04-01T01:38:37;5.97;;;2.33;;
47429;SDS011;33181;49.246;7.372;2023-04-01T01:41:04;3.80;;;2.20;;
47429;SDS011;33181;49.246;7.372;2023-04-01T01:43:42;8.20;;;2.80;;
47429;SDS011;33181;49.246;7.372;2023-04-01T01:46:12;4.40;;;2.00;;
47429;SDS011;33181;49.246;7.372;2023-04-01T01:48:42;9.23;;;2.60;;
47429;SDS011;33181;49.246;7.372;2023-04-01T01:51:10;6.50;;;2.13;;
47429;SDS011;33181;49.246;7.372;2023-04-01T01:53:36;8.53;;;2.30;;
47429;SDS011;33181;49.246;7.372;2023-04-01T01:56:05;4.90;;;2.27;;
47429;SDS011;33181;49.246;7.372;2023-04-01T01:58:32;9.97;;;2.47;;
47429;SDS011;33181;49.246;7.372;2023-04-01T02:01:10;8.87;;;2.37;;
47429;SDS011;33181;49.246;7.372;2023-04-01T02:03:42;8.90;;;2.40;;
47429;SDS011;33181;49.246;7.372;2023-04-01T02:06:10;8.33;;;2.17;;
47429;SDS011;33181;49.246;7.372;2023-04-01T02:11:18;12.47;;;2.20;;
47429;SDS011;33181;49.246;7.372;2023-04-01T02:14:07;9.43;;;2.60;;
47429;SDS011;33181;49.246;7.372;2023-04-01T02:19:38;5.37;;;2.20;;
47429;SDS011;33181;49.246;7.372;2023-04-01T02:22:29;7.50;;;2.60;;
47429;SDS011;33181;49.246;7.372;2023-04-01T02:25:02;12.20;;;2.67;;
47429;SDS011;33181;49.246;7.372;2023-04-01T02:27:38;6.93;;;2.30;;
47429;SDS011;33181;49.246;7.372;2023-04-01T02:30:05;10.27;;;2.40;;
47429;SDS011;33181;49.246;7.372;2023-04-01T02:32:33;6.23;;;2.80;;
47429;SDS011;33181;49.246;7.372;2023-04-01T02:35:02;6.00;;;2.40;;
47429;SDS011;33181;49.246;7.372;2023-04-01T02:37:35;11.20;;;2.83;;
47429;SDS011;33181;49.246;7.372;2023-04-01T02:40:07;8.53;;;3.07;;
47429;SDS011;33181;49.246;7.372;2023-04-01T02:42:36;7.50;;;2.50;;
47429;SDS011;33181;49.246;7.372;2023-04-01T02:45:02;11.13;;;2.80;;
47429;SDS011;33181;49.246;7.372;2023-04-01T02:47:29;6.77;;;2.77;;
47429;SDS011;33181;49.246;7.372;2023-04-01T02:49:55;8.80;;;2.37;;
47429;SDS011;33181;49.246;7.372;2023-04-01T02:52:32;7.00;;;2.77;;
47429;SDS011;33181;49.246;7.372;2023-04-01T02:54:58;9.90;;;2.63;;
47429;SDS011;33181;49.246;7.372;2023-04-01T02:57:24;7.60;;;2.27;;
47429;SDS011;33181;49.246;7.372;2023-04-01T02:59:50;7.97;;;2.77;;
47429;SDS011;33181;49.246;7.372;2023-04-01T03:02:17;6.77;;;2.30;;
47429;SDS011;33181;49.246;7.372;2023-04-01T03:04:43;11.57;;;2.50;;
47429;SDS011;33181;49.246;7.372;2023-04-01T03:07:09;9.07;;;2.50;;
47429;SDS011;33181;49.246;7.372;2023-04-01T03:09:36;8.10;;;2.60;;
47429;SDS011;33181;49.246;7.372;2023-04-01T03:12:03;7.43;;;2.60;;
47429;SDS011;33181;49.246;7.372;2023-04-01T03:14:29;8.97;;;2.70;;
47429;SDS011;33181;49.246;7.372;2023-04-01T03:16:55;7.83;;;2.40;;
47429;SDS011;33181;49.246;7.372;2023-04-01T03:19:21;5.80;;;2.30;;
47429;SDS011;33181;49.246;7.372;2023-04-01T03:21:46;5.80;;;2.27;;
47429;SDS011;33181;49.246;7.372;2023-04-01T03:24:12;8.40;;;2.40;;
47429;SDS011;33181;49.246;7.372;2023-04-01T03:26:40;8.50;;;2.67;;
47429;SDS011;33181;49.246;7.372;2023-04-01T03:29:06;9.03;;;2.70;;
47429;SDS011;33181;49.246;7.372;2023-04-01T03:31:31;5.90;;;2.40;;
47429;SDS011;33181;49.246;7.372;2023-04-01T03:33:57;6.90;;;2.70;;
47429;SDS011;33181;49.246;7.372;2023-04-01T03:36:23;10.03;;;2.50;;
47429;SDS011;33181;49.246;7.372;2023-04-01T03:38:49;7.37;;;2.50;;
47429;SDS011;33181;49.246;7.372;2023-04-01T03:41:15;5.30;;;2.30;;
47429;SDS011;33181;49.246;7.372;2023-04-01T03:43:42;4.40;;;2.13;;
47429;SDS011;33181;49.246;7.372;2023-04-01T03:46:08;7.20;;;2.40;;
47429;SDS011;33181;49.246;7.372;2023-04-01T03:48:34;4.90;;;2.80;;
47429;SDS011;33181;49.246;7.372;2023-04-01T03:51:00;5.93;;;2.33;;
47429;SDS011;33181;49.246;7.372;2023-04-01T03:53:26;5.80;;;2.30;;
47429;SDS011;33181;49.246;7.372;2023-04-01T03:55:52;5.43;;;2.47;;
47429;SDS011;33181;49.246;7.372;2023-04-01T03:58:18;10.40;;;2.93;;
47429;SDS011;33181;49.246;7.372;2023-04-01T04:00:44;10.17;;;3.00;;
47429;SDS011;33181;49.246;7.372;2023-04-01T04:03:11;9.23;;;3.00;;
47429;SDS011;33181;49.246;7.372;2023-04-01T04:05:37;6.97;;;3.00;;
47429;SDS011;33181;49.246;7.372;2023-04-01T04:08:02;9.90;;;3.40;;
47429;SDS011;33181;49.246;7.372;2023-04-01T04:10:29;8.40;;;3.10;;
47429;SDS011;33181;49.246;7.372;2023-04-01T04:12:55;9.20;;;3.03;;
47429;SDS011;33181;49.246;7.372;2023-04-01T04:15:22;8.23;;;2.80;;
47429;SDS011;33181;49.246;7.372;2023-04-01T04:17:47;7.93;;;3.57;;
47429;SDS011;33181;49.246;7.372;2023-04-01T04:20:13;8.20;;;3.43;;
47429;SDS011;33181;49.246;7.372;2023-04-01T04:22:40;10.83;;;3.27;;
47429;SDS011;33181;49.246;7.372;2023-04-01T04:25:06;9.47;;;2.80;;
47429;SDS011;33181;49.246;7.372;2023-04-01T04:27:32;10.07;;;2.80;;
47429;SDS011;33181;49.246;7.372;2023-04-01T04:29:59;7.97;;;2.80;;
47429;SDS011;33181;49.246;7.372;2023-04-01T04:32:24;5.03;;;2.50;;
47429;SDS011;33181;49.246;7.372;2023-04-01T04:34:50;9.70;;;3.30;;
47429;SDS011;33181;49.246;7.372;2023-04-01T04:37:16;9.83;;;3.20;;
47429;SDS011;33181;49.246;7.372;2023-04-01T04:39:41;14.67;;;3.17;;
47429;SDS011;33181;49.246;7.372;2023-04-01T04:42:07;8.83;;;3.03;;
47429;SDS011;33181;49.246;7.372;2023-04-01T04:44:33;10.77;;;2.90;;
47429;SDS011;33181;49.246;7.372;2023-04-01T04:46:59;11.30;;;2.93;;
47429;SDS011;33181;49.246;7.372;2023-04-01T04:49:24;13.13;;;2.60;;
47429;SDS011;33181;49.246;7.372;2023-04-01T04:51:50;9.90;;;2.73;;
47429;SDS011;33181;49.246;7.372;2023-04-01T04:54:17;6.40;;;2.60;;
47429;SDS011;33181;49.246;7.372;2023-04-01T04:56:43;9.90;;;2.93;;
47429;SDS011;33181;49.246;7.372;2023-04-01T04:59:08;10.23;;;2.50;;
47429;SDS011;33181;49.246;7.372;2023-04-01T05:01:34;10.30;;;3.00;;
47429;SDS011;33181;49.246;7.372;2023-04-01T05:04:00;11.10;;;3.93;;
47429;SDS011;33181;49.246;7.372;2023-04-01T05:06:26;10.57;;;2.70;;
47429;SDS011;33181;49.246;7.372;2023-04-01T05:08:54;5.37;;;2.50;;
47429;SDS011;33181;49.246;7.372;2023-04-01T05:11:20;8.90;;;3.27;;
47429;SDS011;33181;49.246;7.372;2023-04-01T05:13:46;9.50;;;2.87;;
47429;SDS011;33181;49.246;7.372;2023-04-01T05:16:13;12.80;;;4.10;;
47429;SDS011;33181;49.246;7.372;2023-04-01T05:18:42;6.77;;;2.70;;
47429;SDS011;33181;49.246;7.372;2023-04-01T05:21:08;6.03;;;3.67;;
47429;SDS011;33181;49.246;7.372;2023-04-01T05:23:37;8.90;;;2.87;;
47429;SDS011;33181;49.246;7.372;2023-04-01T05:26:08;7.13;;;2.97;;
47429;SDS011;33181;49.246;7.372;2023-04-01T05:28:37;11.67;;;4.77;;
47429;SDS011;33181;49.246;7.372;2023-04-01T05:31:03;8.47;;;2.90;;
47429;SDS011;33181;49.246;7.372;2023-04-01T05:33:30;10.10;;;3.03;;
47429;SDS011;33181;49.246;7.372;2023-04-01T05:35:56;5.27;;;2.80;;
47429;SDS011;33181;49.246;7.372;2023-04-01T05:38:40;5.00;;;2.40;;
47429;SDS011;33181;49.246;7.372;2023-04-01T05:41:13;7.60;;;2.50;;
47429;SDS011;33181;49.246;7.372;2023-04-01T05:43:40;5.70;;;2.60;;
47429;SDS011;33181;49.246;7.372;2023-04-01T05:46:07;7.33;;;2.50;;
47429;SDS011;33181;49.246;7.372;2023-04-01T05:48:33;3.50;;;2.40;;
47429;SDS011;33181;49.246;7.372;2023-04-01T05:51:00;5.87;;;2.70;;
47429;SDS011;33181;49.246;7.372;2023-04-01T05:53:26;7.43;;;2.87;;
47429;SDS011;33181;49.246;7.372;2023-04-01T05:55:52;6.63;;;2.90;;
47429;SDS011;33181;49.246;7.372;2023-04-01T05:58:20;7.53;;;3.10;;
47429;SDS011;33181;49.246;7.372;2023-04-01T06:00:46;7.97;;;2.60;;
47429;SDS011;33181;49.246;7.372;2023-04-01T06:03:12;7.33;;;2.57;;
47429;SDS011;33181;49.246;7.372;2023-04-01T06:05:39;5.40;;;2.47;;
47429;SDS011;33181;49.246;7.372;2023-04-01T06:08:15;4.00;;;2.27;;
47429;SDS011;33181;49.246;7.372;2023-04-01T06:10:49;2.90;;;2.30;;
47429;SDS011;33181;49.246;7.372;2023-04-01T06:13:36;9.07;;;2.70;;
47429;SDS011;33181;49.246;7.372;2023-04-01T06:24:37;4.83;;;2.50;;
47429;SDS011;33181;49.246;7.372;2023-04-01T06:27:48;4.60;;;2.17;;
47429;SDS011;33181;49.246;7.372;2023-04-01T06:33:11;5.70;;;2.60;;
47429;SDS011;33181;49.246;7.372;2023-04-01T06:35:51;7.10;;;2.47;;
47429;SDS011;33181;49.246;7.372;2023-04-01T06:53:32;4.80;;;2.20;;
47429;SDS011;33181;49.246;7.372;2023-04-01T06:56:17;4.70;;;2.30;;
47429;SDS011;33181;49.246;7.372;2023-04-01T06:58:46;5.37;;;2.30;;
47429;SDS011;33181;49.246;7.372;2023-04-01T07:01:47;5.93;;;2.17;;
47429;SDS011;33181;49.246;7.372;2023-04-01T07:07:15;2.93;;;1.97;;
47429;SDS011;33181;49.246;7.372;2023-04-01T07:09:57;5.53;;;2.20;;
47429;SDS011;33181;49.246;7.372;2023-04-01T07:14:56;5.43;;;2.70;;
47429;SDS011;33181;49.246;7.372;2023-04-01T07:17:30;5.57;;;2.43;;
47429;SDS011;33181;49.246;7.372;2023-04-01T07:20:03;5.03;;;2.10;;
47429;SDS011;33181;49.246;7.372;2023-04-01T07:22:43;5.07;;;2.27;;
47429;SDS011;33181;49.246;7.372;2023-04-01T07:28:11;4.10;;;2.10;;
47429;SDS011;33181;49.246;7.372;2023-04-01T07:30:42;2.63;;;2.00;;
47429;SDS011;33181;49.246;7.372;2023-04-01T07:36:20;4.83;;;2.37;;
47429;SDS011;33181;49.246;7.372;2023-04-01T07:41:32;3.37;;;1.93;;
47429;SDS011;33181;49.246;7.372;2023-04-01T07:46:52;4.20;;;1.90;;
47429;SDS011;33181;49.246;7.372;2023-04-01T07:52:18;4.40;;;1.73;;
47429;SDS011;33181;49.246;7.372;2023-04-01T07:54:54;3.17;;;1.90;;
47429;SDS011;33181;49.246;7.372;2023-04-01T07:57:28;3.93;;;1.70;;
47429;SDS011;33181;49.246;7.372;2023-04-01T08:00:23;2.67;;;1.70;;
47429;SDS011;33181;49.246;7.372;2023-04-01T08:06:25;2.10;;;1.60;;
47429;SDS011;33181;49.246;7.372;2023-04-01T08:21:25;4.30;;;1.90;;
47429;SDS011;33181;49.246;7.372;2023-04-01T08:24:04;2.50;;;1.70;;
47429;SDS011;33181;49.246;7.372;2023-04-01T08:26:55;2.10;;;1.60;;
47429;SDS011;33181;49.246;7.372;2023-04-01T08:29:33;5.20;;;1.90;;
47429;SDS011;33181;49.246;7.372;2023-04-01T08:34:43;2.53;;;1.80;;
47429;SDS011;33181;49.246;7.372;2023-04-01T08:37:17;4.20;;;1.90;;
47429;SDS011;33181;49.246;7.372;2023-04-01T08:40:35;3.10;;;1.70;;
47429;SDS011;33181;49.246;7.372;2023-04-01T08:43:15;4.80;;;1.80;;
47429;SDS011;33181;49.246;7.372;2023-04-01T08:54:46;2.10;;;1.60;;
47429;SDS011;33181;49.246;7.372;2023-04-01T09:03:37;2.30;;;1.70;;
47429;SDS011;33181;49.246;7.372;2023-04-01T09:12:18;2.63;;;1.90;;
47429;SDS011;33181;49.246;7.372;2023-04-01T09:18:38;4.03;;;1.80;;
47429;SDS011;33181;49.246;7.372;2023-04-01T09:21:19;2.37;;;2.00;;
47429;SDS011;33181;49.246;7.372;2023-04-01T09:30:27;2.60;;;1.97;;
47429;SDS011;33181;49.246;7.372;2023-04-01T09:36:37;5.20;;;2.10;;
47429;SDS011;33181;49.246;7.372;2023-04-01T09:44:32;3.80;;;1.90;;
47429;SDS011;33181;49.246;7.372;2023-04-01T09:50:29;3.17;;;2.03;;
47429;SDS011;33181;49.246;7.372;2023-04-01T10:01:03;2.80;;;2.40;;
47429;SDS011;33181;49.246;7.372;2023-04-01T10:06:45;2.80;;;2.20;;
47429;SDS011;33181;49.246;7.372;2023-04-01T11:04:46;2.80;;;2.30;;
47429;SDS011;33181;49.246;7.372;2023-04-01T11:29:16;3.40;;;2.30;;
47429;SDS011;33181;49.246;7.372;2023-04-01T11:34:48;2.77;;;1.93;;
47429;SDS011;33181;49.246;7.372;2023-04-01T11:43:49;2.60;;;1.83;;
47429;SDS011;33181;49.246;7.372;2023-04-01T11:52:59;2.80;;;2.13;;
47429;SDS011;33181;49.246;7.372;2023-04-01T11:55:42;2.97;;;1.80;;
47429;SDS011;33181;49.246;7.372;2023-04-01T12:01:49;2.90;;;2.00;;
47429;SDS011;33181;49.246;7.372;2023-04-01T12:04:43;4.40;;;2.30;;
47429;SDS011;33181;49.246;7.372;2023-04-01T12:07:50;3.90;;;2.50;;
47429;SDS011;33181;49.246;7.372;2023-04-01T12:11:15;2.80;;;2.33;;
47429;SDS011;33181;49.246;7.372;2023-04-01T12:14:05;2.57;;;2.30;;
47429;SDS011;33181;49.246;7.372;2023-04-01T12:17:53;4.27;;;2.30;;
47429;SDS011;33181;49.246;7.372;2023-04-01T12:23:03;3.10;;;2.20;;
47429;SDS011;33181;49.246;7.372;2023-04-01T12:31:19;4.90;;;2.30;;
47429;SDS011;33181;49.246;7.372;2023-04-01T12:37:20;3.80;;;2.30;;
47429;SDS011;33181;49.246;7.372;2023-04-01T12:40:13;2.87;;;1.87;;
47429;SDS011;33181;49.246;7.372;2023-04-01T13:06:41;3.93;;;1.83;;
47429;SDS011;33181;49.246;7.372;2023-04-01T13:20:37;3.33;;;2.10;;
47429;SDS011;33181;49.246;7.372;2023-04-01T13:29:15;4.40;;;1.80;;
47429;SDS011;33181;49.246;7.372;2023-04-01T13:35:07;3.10;;;2.20;;
47429;SDS011;33181;49.246;7.372;2023-04-01T13:43:31;3.10;;;1.90;;
47429;SDS011;33181;49.246;7.372;2023-04-01T13:48:28;3.27;;;1.77;;
47429;SDS011;33181;49.246;7.372;2023-04-01T13:51:32;2.50;;;1.90;;
47429;SDS011;33181;49.246;7.372;2023-04-01T13:54:45;3.80;;;2.00;;
47429;SDS011;33181;49.246;7.372;2023-04-01T13:57:37;2.40;;;1.83;;
47429;SDS011;33181;49.246;7.372;2023-04-01T14:03:20;2.97;;;1.77;;
47429;SDS011;33181;49.246;7.372;2023-04-01T14:06:02;3.00;;;1.90;;
47429;SDS011;33181;49.246;7.372;2023-04-01T14:11:46;5.20;;;2.10;;
47429;SDS011;33181;49.246;7.372;2023-04-01T14:17:38;3.27;;;2.10;;
47429;SDS011;33181;49.246;7.372;2023-04-01T14:32:03;6.13;;;2.23;;
47429;SDS011;33181;49.246;7.372;2023-04-01T14:35:10;3.60;;;2.40;;
47429;SDS011;33181;49.246;7.372;2023-04-01T14:43:53;3.03;;;1.90;;
47429;SDS011;33181;49.246;7.372;2023-04-01T14:50:09;3.53;;;2.37;;
47429;SDS011;33181;49.246;7.372;2023-04-01T15:00:52;2.87;;;2.03;;
47429;SDS011;33181;49.246;7.372;2023-04-01T15:03:40;3.80;;;2.10;;
47429;SDS011;33181;49.246;7.372;2023-04-01T15:11:54;3.73;;;2.30;;
47429;SDS011;33181;49.246;7.372;2023-04-01T15:28:28;3.33;;;1.87;;
47429;SDS011;33181;49.246;7.372;2023-04-01T15:31:45;2.37;;;1.73;;
47429;SDS011;33181;49.246;7.372;2023-04-01T15:34:35;2.93;;;2.00;;
47429;SDS011;33181;49.246;7.372;2023-04-01T15:40:11;2.97;;;1.90;;
47429;SDS011;33181;49.246;7.372;2023-04-01T15:43:05;4.30;;;1.90;;
47429;SDS011;33181;49.246;7.372;2023-04-01T15:55:18;2.10;;;1.70;;
47429;SDS011;33181;49.246;7.372;2023-04-01T16:01:24;3.60;;;2.07;;
47429;SDS011;33181;49.246;7.372;2023-04-01T16:04:41;3.60;;;2.00;;
47429;SDS011;33181;49.246;7.372;2023-04-01T16:07:26;5.33;;;2.20;;
47429;SDS011;33181;49.246;7.372;2023-04-01T16:12:53;2.70;;;1.90;;
47429;SDS011;33181;49.246;7.372;2023-04-01T16:15:37;4.93;;;1.87;;
47429;SDS011;33181;49.246;7.372;2023-04-01T16:30:00;2.80;;;2.00;;
47429;SDS011;33181;49.246;7.372;2023-04-01T16:32:51;3.33;;;2.00;;
47429;SDS011;33181;49.246;7.372;2023-04-01T16:42:11;2.70;;;2.23;;
47429;SDS011;33181;49.246;7.372;2023-04-01T16:45:01;3.47;;;1.93;;
47429;SDS011;33181;49.246;7.372;2023-04-01T16:47:40;4.30;;;2.13;;
47429;SDS011;33181;49.246;7.372;2023-04-01T16:50:20;2.20;;;1.70;;
47429;SDS011;33181;49.246;7.372;2023-04-01T16:58:26;4.27;;;2.30;;
47429;SDS011;33181;49.246;7.372;2023-04-01T17:19:14;3.97;;;2.90;;
47429;SDS011;33181;49.246;7.372;2023-04-01T17:28:04;5.03;;;2.57;;
47429;SDS011;33181;49.246;7.372;2023-04-01T17:36:36;3.93;;;2.40;;
47429;SDS011;33181;49.246;7.372;2023-04-01T17:39:22;4.30;;;2.73;;
47429;SDS011;33181;49.246;7.372;2023-04-01T17:42:15;3.53;;;2.57;;
47429;SDS011;33181;49.246;7.372;2023-04-01T17:45:03;4.23;;;3.00;;
47429;SDS011;33181;49.246;7.372;2023-04-01T17:48:09;5.17;;;2.43;;
47429;SDS011;33181;49.246;7.372;2023-04-01T18:23:41;3.60;;;2.87;;
47429;SDS011;33181;49.246;7.372;2023-04-01T18:26:22;4.60;;;2.87;;
47429;SDS011;33181;49.246;7.372;2023-04-01T18:28:59;2.90;;;2.27;;
47429;SDS011;33181;49.246;7.372;2023-04-01T18:32:22;5.43;;;2.40;;
47429;SDS011;33181;49.246;7.372;2023-04-01T18:40:04;3.30;;;2.27;;
47429;SDS011;33181;49.246;7.372;2023-04-01T18:43:20;3.23;;;2.50;;
47429;SDS011;33181;49.246;7.372;2023-04-01T18:46:21;4.10;;;2.60;;
47429;SDS011;33181;49.246;7.372;2023-04-01T18:49:21;4.60;;;2.67;;
47429;SDS011;33181;49.246;7.372;2023-04-01T18:55:17;5.77;;;2.80;;
47429;SDS011;33181;49.246;7.372;2023-04-01T18:58:14;3.57;;;2.97;;
47429;SDS011;33181;49.246;7.372;2023-04-01T19:00:47;3.53;;;2.53;;
47429;SDS011;33181;49.246;7.372;2023-04-01T19:03:44;4.30;;;2.60;;
47429;SDS011;33181;49.246;7.372;2023-04-01T19:09:16;4.00;;;2.80;;
47429;SDS011;33181;49.246;7.372;2023-04-01T19:18:02;5.00;;;2.90;;
47429;SDS011;33181;49.246;7.372;2023-04-01T19:35:54;3.63;;;2.40;;
47429;SDS011;33181;49.246;7.372;2023-04-01T19:38:52;6.00;;;2.73;;
47429;SDS011;33181;49.246;7.372;2023-04-01T19:52:33;4.30;;;3.07;;
47429;SDS011;33181;49.246;7.372;2023-04-01T19:58:17;4.33;;;2.30;;
47429;SDS011;33181;49.246;7.372;2023-04-01T20:01:03;4.00;;;2.30;;
47429;SDS011;33181;49.246;7.372;2023-04-01T20:03:50;5.80;;;2.67;;
47429;SDS011;33181;49.246;7.372;2023-04-01T20:12:40;3.60;;;2.43;;
47429;SDS011;33181;49.246;7.372;2023-04-01T20:21:05;4.27;;;2.70;;
47429;SDS011;33181;49.246;7.372;2023-04-01T20:23:53;3.63;;;2.77;;
47429;SDS011;33181;49.246;7.372;2023-04-01T20:27:38;4.17;;;2.80;;
47429;SDS011;33181;49.246;7.372;2023-04-01T20:36:09;3.00;;;2.40;;
47429;SDS011;33181;49.246;7.372;2023-04-01T20:41:43;3.90;;;2.57;;
47429;SDS011;33181;49.246;7.372;2023-04-01T20:47:44;4.33;;;2.50;;
47429;SDS011;33181;49.246;7.372;2023-04-01T20:53:28;4.30;;;2.90;;
47429;SDS011;33181;49.246;7.372;2023-04-01T20:56:30;5.60;;;2.70;;
47429;SDS011;33181;49.246;7.372;2023-04-01T20:59:36;4.50;;;3.13;;
47429;SDS011;33181;49.246;7.372;2023-04-01T21:26:50;4.60;;;2.80;;
47429;SDS011;33181;49.246;7.372;2023-04-01T21:56:22;4.70;;;2.80;;
47429;SDS011;33181;49.246;7.372;2023-04-01T22:17:19;5.63;;;3.20;;
47429;SDS011;33181;49.246;7.372;2023-04-01T22:22:52;5.47;;;3.20;;
47429;SDS011;33181;49.246;7.372;2023-04-01T22:28:28;7.63;;;3.63;;
47429;SDS011;33181;49.246;7.372;2023-04-01T22:31:00;5.80;;;3.40;;
47429;SDS011;33181;49.246;7.372;2023-04-01T22:33:37;7.13;;;3.70;;
47429;SDS011;33181;49.246;7.372;2023-04-01T22:36:21;7.90;;;3.40;;
47429;SDS011;33181;49.246;7.372;2023-04-01T22:39:13;6.50;;;3.30;;
47429;SDS011;33181;49.246;7.372;2023-04-01T22:41:52;5.90;;;3.93;;
47429;SDS011;33181;49.246;7.372;2023-04-01T22:50:27;5.17;;;3.70;;
47429;SDS011;33181;49.246;7.372;2023-04-01T22:56:05;5.53;;;3.80;;
47429;SDS011;33181;49.246;7.372;2023-04-01T22:58:42;5.07;;;4.10;;
47429;SDS011;33181;49.246;7.372;2023-04-01T23:01:27;7.27;;;4.00;;
47429;SDS011;33181;49.246;7.372;2023-04-01T23:03:57;8.70;;;4.47;;
47429;SDS011;33181;49.246;7.372;2023-04-01T23:06:31;5.37;;;4.40;;
47429;SDS011;33181;49.246;7.372;2023-04-01T23:11:49;5.20;;;4.30;;
47429;SDS011;33181;49.246;7.372;2023-04-01T23:14:52;7.10;;;4.13;;
47429;SDS011;33181;49.246;7.372;2023-04-01T23:20:47;6.80;;;4.70;;
47429;SDS011;33181;49.246;7.372;2023-04-01T23:29:02;7.10;;;3.90;;
47429;SDS011;33181;49.246;7.372;2023-04-01T23:31:38;5.20;;;4.40;;
47429;SDS011;33181;49.246;7.372;2023-04-01T23:36:39;4.90;;;4.13;;
47429;SDS011;33181;49.246;7.372;2023-04-01T23:39:34;5.97;;;4.40;;
47429;SDS011;33181;49.246;7.372;2023-04-01T23:42:03;7.10;;;4.70;;
47429;SDS011;33181;49.246;7.372;2023-04-01T23:44:55;6.93;;;4.43;;
47429;SDS011;33181;49.246;7.372;2023-04-01T23:47:32;9.60;;;4.60;;
47429;SDS011;33181;49.246;7.372;2023-04-01T23:50:10;7.30;;;5.30;;
47429;SDS011;33181;49.246;7.372;2023-04-01T23:52:53;6.70;;;4.50;;
47429;SDS011;33181;49.246;7.372;2023-04-01T23:55:49;8.10;;;4.53;;
47429;SDS011;33181;49.246;7.372;2023-04-01T23:58:25;5.73;;;4.67;;
